CMA CGM Thalassa — 5BNE2 — position and weather

sailwx.info

Track history (hours):
 
Tides and Currents Weather Stations Pressure Air Temp Water Temp Dewpoint Dewpoint Depression Visibility Wind Speed Wind Dir Waves Ship Positions

CMA CGM Thalassa

Last reported at 2015-May-16 01:29 UTC. Time now 2015-May-26 15:44 UTC.
Position N 29°49' E 032°32'.
Warning: this ship's position is 10 days out of date.

Length 347 m; draft 15.7 m.

Type: Cargo ship. MMSI: 212151000.

Date/timePositionNaut miles runAvg speedWind from/ knotsBaromVisibWave heightAir tempDewpointWater temp
2015-May-16 01:29N 29°49' E 032°32'9 9.1
2015-May-16 00:31N 29°57' E 032°35'17 8.7
2015-May-15 22:32N 30°14' E 032°33'25 8.5
2015-May-15 19:33N 30°37' E 032°19'8 7.9
2015-May-15 18:30N 30°45' E 032°20'11 9.1
2015-May-15 17:17N 30°56' E 032°19'7 9.3
2015-May-15 16:33N 31°03' E 032°19'9 9.3
2015-May-15 15:33N 31°12' E 032°20'15 7.1
2015-May-15 13:30N 31°26' E 032°23'4 0.3
2015-May-15 00:33N 31°28' E 032°19'  
2015-May-12 04:33N 34°03' E 033°10'2719.8
2015-May-12 03:13N 34°05' E 032°38'3319.6
2015-May-12 01:33N 34°08' E 031°58'2419.7
2015-May-12 00:19N 34°10' E 031°29'80818.7
2015-May-10 05:10N 36°17' E 015°12'1219.8
2015-May-10 04:33N 36°20' E 014°57'2019.8
2015-May-10 03:33N 36°25' E 014°33'1919.4
2015-May-10 02:33N 36°30' E 014°10'2019.8
2015-May-10 01:33N 36°35' E 013°46'2019.8
2015-May-10 00:33N 36°41' E 013°22'1919.6
2015-May-09 23:33N 36°47' E 012°59'2019.5
2015-May-09 22:32N 36°53' E 012°36'40119.8
2015-May-09 02:17N 37°10' E 004°14'1720.2
2015-May-09 01:26N 37°08' E 003°52'2120.4
2015-May-09 00:25N 37°05' E 003°27'1720.1
2015-May-08 23:33N 37°02' E 003°06'2020.4
2015-May-08 22:33N 36°59' E 002°40'2020.0
2015-May-08 21:33N 36°56' E 002°16'2120.6
2015-May-08 20:33N 36°52' E 001°50'2120.8
2015-May-08 19:33N 36°49' E 001°24'2120.9
2015-May-08 18:33N 36°46' E 000°59'2120.6
2015-May-08 17:33N 36°43' E 000°33'2020.2
2015-May-08 16:33N 36°40' E 000°08'1919.3
2015-May-08 15:33N 36°36' W 000°15'7 6.7
2015-May-08 14:33N 36°34' W 000°24'2 2.5
2015-May-08 13:33N 36°35' W 000°26'1918.7
2015-May-08 12:33N 36°31' W 000°49'2020.0
2015-May-08 11:34N 36°29' W 001°14'2219.8
2015-May-08 10:27N 36°26' W 001°41'1920.0
2015-May-08 09:29N 36°23' W 002°04'2319.8
2015-May-08 08:21N 36°19' W 002°32'21319.6
2015-May-07 21:29N 36°04' W 006°56'1819.9
2015-May-07 20:33N 36°08' W 007°18'2919.9
2015-May-07 19:05N 36°17' W 007°53'5119.7
2015-May-07 16:30N 36°29' W 008°54'1919.3
2015-May-07 15:29N 36°34' W 009°17'1819.1
2015-May-07 14:33N 36°47' W 009°33'1919.5
2015-May-07 13:33N 37°06' W 009°38'2119.5
2015-May-07 12:27N 37°27' W 009°44'3719.1
2015-May-07 10:32N 38°03' W 009°55'1818.3
2015-May-07 09:34N 38°20' W 010°00'1818.2
2015-May-07 08:33N 38°38' W 010°05'1918.6
2015-May-07 07:33N 38°57' W 010°06'1918.7
2015-May-07 06:33N 39°15' W 010°06'2018.8
2015-May-07 05:30N 39°35' W 010°05'2519.1
2015-May-07 04:11N 40°00' W 010°06'1318.7
2015-May-07 03:30N 40°13' W 010°06'  
Track history (hours):
 
Tides and Currents Weather Stations Pressure Air Temp Water Temp Dewpoint Dewpoint Depression Visibility Wind Speed Wind Dir Waves Ship Positions

CMA CGM Thalassa

Last reported at 2015-May-16 01:29 UTC. Time now 2015-May-26 15:44 UTC.
Position N 29°49' E 032°32'.
Warning: this ship's position is 10 days out of date.

Length 347 m; draft 15.7 m.

Type: Cargo ship. MMSI: 212151000.

Date/timePositionNaut miles runAvg speedWind from/ knotsBaromVisibWave heightAir tempDewpointWater temp
2015-May-16 01:29N 29°49' E 032°32'9 9.1
2015-May-16 00:31N 29°57' E 032°35'17 8.7
2015-May-15 22:32N 30°14' E 032°33'25 8.5
2015-May-15 19:33N 30°37' E 032°19'8 7.9
2015-May-15 18:30N 30°45' E 032°20'11 9.1
2015-May-15 17:17N 30°56' E 032°19'7 9.3
2015-May-15 16:33N 31°03' E 032°19'9 9.3
2015-May-15 15:33N 31°12' E 032°20'15 7.1
2015-May-15 13:30N 31°26' E 032°23'4 0.3
2015-May-15 00:33N 31°28' E 032°19'  
2015-May-12 04:33N 34°03' E 033°10'2719.8
2015-May-12 03:13N 34°05' E 032°38'3319.6
2015-May-12 01:33N 34°08' E 031°58'2419.7
2015-May-12 00:19N 34°10' E 031°29'80818.7
2015-May-10 05:10N 36°17' E 015°12'1219.8
2015-May-10 04:33N 36°20' E 014°57'2019.8
2015-May-10 03:33N 36°25' E 014°33'1919.4
2015-May-10 02:33N 36°30' E 014°10'2019.8
2015-May-10 01:33N 36°35' E 013°46'2019.8
2015-May-10 00:33N 36°41' E 013°22'1919.6
2015-May-09 23:33N 36°47' E 012°59'2019.5
2015-May-09 22:32N 36°53' E 012°36'40119.8
2015-May-09 02:17N 37°10' E 004°14'1720.2
2015-May-09 01:26N 37°08' E 003°52'2120.4
2015-May-09 00:25N 37°05' E 003°27'1720.1
2015-May-08 23:33N 37°02' E 003°06'2020.4
2015-May-08 22:33N 36°59' E 002°40'2020.0
2015-May-08 21:33N 36°56' E 002°16'2120.6
2015-May-08 20:33N 36°52' E 001°50'2120.8
2015-May-08 19:33N 36°49' E 001°24'2120.9
2015-May-08 18:33N 36°46' E 000°59'2120.6
2015-May-08 17:33N 36°43' E 000°33'2020.2
2015-May-08 16:33N 36°40' E 000°08'1919.3
2015-May-08 15:33N 36°36' W 000°15'7 6.7
2015-May-08 14:33N 36°34' W 000°24'2 2.5
2015-May-08 13:33N 36°35' W 000°26'1918.7
2015-May-08 12:33N 36°31' W 000°49'2020.0
2015-May-08 11:34N 36°29' W 001°14'2219.8
2015-May-08 10:27N 36°26' W 001°41'1920.0
2015-May-08 09:29N 36°23' W 002°04'2319.8
2015-May-08 08:21N 36°19' W 002°32'21319.6
2015-May-07 21:29N 36°04' W 006°56'1819.9
2015-May-07 20:33N 36°08' W 007°18'2919.9
2015-May-07 19:05N 36°17' W 007°53'5119.7
2015-May-07 16:30N 36°29' W 008°54'1919.3
2015-May-07 15:29N 36°34' W 009°17'1819.1
2015-May-07 14:33N 36°47' W 009°33'1919.5
2015-May-07 13:33N 37°06' W 009°38'2119.5
2015-May-07 12:27N 37°27' W 009°44'3719.1
2015-May-07 10:32N 38°03' W 009°55'1818.3
2015-May-07 09:34N 38°20' W 010°00'1818.2
2015-May-07 08:33N 38°38' W 010°05'1918.6
2015-May-07 07:33N 38°57' W 010°06'1918.7
2015-May-07 06:33N 39°15' W 010°06'2018.8
2015-May-07 05:30N 39°35' W 010°05'2519.1
2015-May-07 04:11N 40°00' W 010°06'1318.7
2015-May-07 03:30N 40°13' W 010°06'  

Dump ship's entire track history